createdAt,value
2018-03-19T00:00:05.102Z,1.14
2018-03-19T00:02:33.380Z,1.14
2018-03-19T00:05:01.681Z,1.08
2018-03-19T00:07:29.980Z,1.19
2018-03-19T00:09:58.289Z,1.25
2018-03-19T00:12:26.585Z,1.37
2018-03-19T00:14:54.868Z,1.43
2018-03-19T00:17:23.123Z,1.44
2018-03-19T00:19:51.438Z,1.27
2018-03-19T00:22:19.766Z,1.19
2018-03-19T00:24:48.041Z,1.31
2018-03-19T00:27:16.307Z,1.39
2018-03-19T00:29:44.582Z,1.26
2018-03-19T00:32:12.854Z,1.37
2018-03-19T00:34:41.154Z,1.38
2018-03-19T00:37:09.447Z,1.34
2018-03-19T00:39:37.736Z,1.28
2018-03-19T00:42:05.992Z,1.39
2018-03-19T00:44:34.275Z,1.31
2018-03-19T00:47:02.554Z,1.35
2018-03-19T00:49:30.815Z,1.25
2018-03-19T00:51:59.099Z,0.97
2018-03-19T00:54:27.379Z,1.22
2018-03-19T00:56:55.686Z,1.14
2018-03-19T00:59:23.959Z,1.43
2018-03-19T01:01:52.279Z,1.38
2018-03-19T01:04:20.590Z,1.45
2018-03-19T01:06:49.515Z,1.39
2018-03-19T01:09:17.772Z,1.28
2018-03-19T01:11:46.063Z,1.30
2018-03-19T01:14:14.327Z,1.43
2018-03-19T01:16:42.627Z,1.12
2018-03-19T01:19:10.905Z,1.36
2018-03-19T01:21:39.192Z,1.44
2018-03-19T01:24:07.804Z,1.42
2018-03-19T01:26:36.281Z,1.45
2018-03-19T01:29:04.559Z,1.50
2018-03-19T01:31:32.843Z,1.47
2018-03-19T01:34:01.106Z,1.33
2018-03-19T01:36:29.367Z,1.18
2018-03-19T01:38:57.662Z,1.11
2018-03-19T01:41:25.937Z,1.33
2018-03-19T01:43:54.216Z,1.40
2018-03-19T01:46:22.492Z,1.23
2018-03-19T01:48:50.784Z,1.16
2018-03-19T01:51:19.046Z,1.22
2018-03-19T01:53:47.327Z,1.12
2018-03-19T01:56:15.630Z,1.24
2018-03-19T01:58:43.907Z,1.30
2018-03-19T02:01:12.167Z,1.29
2018-03-19T02:03:40.480Z,0.87
2018-03-19T02:06:08.739Z,0.80
2018-03-19T02:08:37.028Z,0.97
2018-03-19T02:11:05.276Z,1.05
2018-03-19T02:13:33.552Z,1.00
2018-03-19T02:16:01.815Z,1.19
2018-03-19T02:18:30.104Z,1.14
2018-03-19T02:20:58.347Z,1.18
2018-03-19T02:23:26.659Z,1.05
2018-03-19T02:25:54.916Z,1.00
2018-03-19T02:28:23.202Z,0.96
2018-03-19T02:30:51.468Z,1.07
2018-03-19T02:33:19.748Z,1.25
2018-03-19T02:35:48.008Z,1.36
2018-03-19T02:38:16.310Z,1.33
2018-03-19T02:40:44.583Z,1.20
2018-03-19T02:43:12.850Z,1.25
2018-03-19T02:45:41.136Z,1.37
2018-03-19T02:48:09.415Z,1.42
2018-03-19T02:50:37.696Z,1.26
2018-03-19T02:53:05.974Z,1.11
2018-03-19T02:55:34.260Z,1.17
2018-03-19T02:58:02.518Z,1.20
2018-03-19T03:00:30.843Z,1.17
2018-03-19T03:02:59.076Z,1.18
2018-03-19T03:05:27.367Z,1.24
2018-03-19T03:07:55.640Z,1.29
2018-03-19T03:10:23.920Z,1.28
2018-03-19T03:12:52.176Z,1.25
2018-03-19T03:15:20.455Z,1.24
2018-03-19T03:17:48.724Z,1.23
2018-03-19T03:20:17.003Z,1.18
2018-03-19T03:22:45.276Z,0.26
2018-03-19T03:25:13.596Z,1.09
2018-03-19T03:27:41.860Z,1.11
2018-03-19T03:30:10.180Z,1.19
2018-03-19T03:32:38.460Z,1.27
2018-03-19T03:35:06.758Z,1.35
2018-03-19T03:37:35.055Z,1.40
2018-03-19T03:40:03.292Z,1.41
2018-03-19T03:42:31.611Z,1.42
2018-03-19T03:44:59.873Z,1.59
2018-03-19T03:47:28.161Z,1.58
2018-03-19T03:49:56.436Z,1.43
2018-03-19T03:52:24.716Z,1.29
2018-03-19T03:54:52.979Z,1.39
2018-03-19T03:57:21.268Z,1.52
2018-03-19T03:59:49.538Z,1.59
2018-03-19T04:02:17.839Z,1.49
2018-03-19T04:04:46.230Z,1.50
2018-03-19T04:07:14.620Z,1.34
2018-03-19T04:09:42.915Z,1.27
2018-03-19T04:12:11.210Z,1.18
2018-03-19T04:14:39.477Z,1.25
2018-03-19T04:17:07.762Z,1.37
2018-03-19T04:19:36.025Z,1.29
2018-03-19T04:22:05.172Z,1.30
2018-03-19T04:24:33.441Z,1.26
2018-03-19T04:27:01.739Z,1.21
2018-03-19T04:29:30.022Z,1.32
2018-03-19T04:31:58.333Z,1.32
2018-03-19T04:34:26.590Z,1.41
2018-03-19T04:36:54.855Z,1.40
2018-03-19T04:39:23.252Z,1.33
2018-03-19T04:41:51.522Z,1.25
2018-03-19T04:44:19.812Z,1.04
2018-03-19T04:46:48.097Z,0.99
2018-03-19T04:49:16.392Z,1.01
2018-03-19T04:51:44.660Z,1.23
2018-03-19T04:54:12.953Z,1.26
2018-03-19T04:56:41.220Z,1.35
2018-03-19T04:59:09.511Z,1.28
2018-03-19T05:01:37.774Z,1.41
2018-03-19T05:04:06.066Z,1.39
2018-03-19T05:06:34.323Z,1.30
2018-03-19T05:09:02.619Z,1.30
2018-03-19T05:11:30.887Z,1.26
2018-03-19T05:13:59.209Z,1.31
2018-03-19T05:16:27.474Z,1.31
2018-03-19T05:18:55.775Z,1.26
2018-03-19T05:21:24.154Z,1.40
2018-03-19T05:23:52.444Z,1.47
2018-03-19T05:26:21.525Z,1.53
2018-03-19T05:28:49.817Z,1.47
2018-03-19T05:31:18.192Z,1.44
2018-03-19T05:33:46.498Z,1.51
2018-03-19T05:36:14.782Z,1.47
2018-03-19T05:38:43.130Z,1.45
2018-03-19T05:41:11.395Z,1.42
2018-03-19T05:43:39.669Z,1.34
2018-03-19T05:46:07.978Z,1.21
2018-03-19T05:48:36.258Z,1.20
2018-03-19T05:51:05.092Z,1.09
2018-03-19T05:53:33.367Z,1.18
2018-03-19T05:56:01.645Z,1.31
2018-03-19T05:58:29.929Z,1.18
2018-03-19T06:00:58.222Z,1.28
2018-03-19T06:03:26.476Z,1.29
2018-03-19T06:05:54.769Z,1.39
2018-03-19T06:08:23.044Z,1.33
2018-03-19T06:10:52.086Z,1.35
2018-03-19T06:13:20.391Z,1.38
2018-03-19T06:15:48.664Z,1.48
2018-03-19T06:18:16.939Z,1.36
2018-03-19T06:20:45.275Z,1.37
2018-03-19T06:23:13.580Z,1.49
2018-03-19T06:25:41.876Z,1.44
2018-03-19T06:28:10.158Z,1.56
2018-03-19T06:30:38.507Z,1.43
2018-03-19T06:33:06.801Z,1.59
2018-03-19T06:35:35.076Z,1.71
2018-03-19T06:38:04.096Z,1.77
2018-03-19T06:40:32.452Z,1.78
2018-03-19T06:43:00.796Z,1.66
2018-03-19T06:45:29.055Z,1.54
2018-03-19T06:47:57.348Z,1.47
2018-03-19T06:50:25.637Z,1.51
2018-03-19T06:52:54.012Z,1.62
2018-03-19T06:55:22.288Z,1.66
2018-03-19T06:57:50.583Z,1.64
2018-03-19T07:02:53.362Z,1.62
2018-03-19T07:05:21.705Z,1.62
2018-03-19T07:07:49.991Z,1.74
2018-03-19T07:10:18.261Z,1.64
2018-03-19T07:12:46.557Z,1.49
2018-03-19T07:15:14.865Z,1.59
2018-03-19T07:17:43.150Z,1.56
2018-03-19T07:20:11.391Z,1.62
2018-03-19T07:22:40.396Z,1.81
2018-03-19T07:25:08.664Z,1.89
2018-03-19T07:27:37.020Z,1.79
2018-03-19T07:30:05.260Z,1.50
2018-03-19T07:32:33.568Z,1.56
2018-03-19T07:35:01.835Z,1.68
2018-03-19T07:37:30.178Z,1.77
2018-03-19T07:39:58.466Z,1.89
2018-03-19T07:42:26.735Z,1.82
2018-03-19T07:44:55.083Z,1.68
2018-03-19T07:47:23.383Z,1.84
2018-03-19T07:49:51.723Z,2.02
2018-03-19T07:52:19.989Z,1.89
2018-03-19T07:54:49.186Z,1.82
2018-03-19T07:57:17.520Z,1.86
2018-03-19T07:59:45.932Z,1.95
2018-03-19T08:02:14.230Z,1.98
2018-03-19T08:04:42.499Z,2.12
2018-03-19T08:07:10.796Z,2.13
2018-03-19T08:09:39.092Z,2.11
2018-03-19T08:12:07.537Z,2.05
2018-03-19T08:14:35.854Z,2.00
2018-03-19T08:17:05.177Z,1.93
2018-03-19T08:19:33.464Z,1.89
2018-03-19T08:22:01.785Z,1.80
2018-03-19T08:24:30.140Z,1.99
2018-03-19T08:27:08.069Z,2.12
2018-03-19T08:29:36.415Z,1.91
2018-03-19T08:32:05.004Z,1.89
2018-03-19T08:34:33.409Z,1.89
2018-03-19T08:37:02.572Z,1.87
2018-03-19T08:39:30.932Z,1.82
2018-03-19T08:41:59.223Z,1.93
2018-03-19T08:44:27.598Z,2.07
2018-03-19T08:46:55.950Z,2.12
2018-03-19T08:49:24.301Z,2.31
2018-03-19T08:51:52.612Z,2.36
2018-03-19T08:54:20.868Z,2.58
2018-03-19T08:56:49.171Z,2.73
2018-03-19T08:59:17.427Z,2.60
2018-03-19T09:01:45.732Z,2.70
2018-03-19T09:04:14.059Z,2.90
2018-03-19T09:06:42.351Z,3.01
2018-03-19T09:09:10.663Z,2.92
2018-03-19T09:11:39.004Z,3.06
2018-03-19T09:14:07.343Z,3.17
2018-03-19T09:16:35.659Z,2.99
2018-03-19T09:19:04.416Z,2.39
2018-03-19T09:21:32.748Z,2.61
2018-03-19T09:24:01.148Z,3.05
2018-03-19T09:26:29.467Z,3.34
2018-03-19T09:28:57.841Z,3.59
2018-03-19T09:31:26.148Z,3.60
2018-03-19T09:33:54.632Z,3.70
2018-03-19T09:36:22.891Z,3.87
2018-03-19T09:38:51.181Z,3.84
2018-03-19T09:41:19.533Z,3.61
2018-03-19T09:43:47.822Z,3.40
2018-03-19T09:46:16.169Z,3.42
2018-03-19T09:48:44.573Z,3.12
2018-03-19T09:51:18.478Z,3.12
2018-03-19T09:53:46.808Z,2.74
2018-03-19T09:56:15.051Z,2.85
2018-03-19T09:58:43.358Z,3.07
2018-03-19T10:01:11.624Z,3.00
2018-03-19T10:03:39.921Z,3.19
2018-03-19T10:06:08.208Z,3.42
2018-03-19T10:08:36.517Z,3.58
2018-03-19T10:11:05.052Z,3.36
2018-03-19T10:13:33.357Z,3.29
2018-03-19T10:16:01.633Z,3.52
2018-03-19T10:18:30.263Z,3.60
2018-03-19T10:20:58.567Z,3.67
2018-03-19T10:23:26.844Z,3.28
2018-03-19T10:25:55.112Z,2.80
2018-03-19T10:28:23.417Z,2.88
2018-03-19T10:30:52.027Z,3.44
2018-03-19T10:33:20.353Z,3.65
2018-03-19T10:35:48.607Z,3.21
2018-03-19T10:38:16.932Z,3.10
2018-03-19T10:40:45.210Z,3.47
2018-03-19T10:43:13.480Z,3.62
2018-03-19T10:45:41.838Z,3.93
2018-03-19T10:48:10.217Z,4.23
2018-03-19T10:50:38.541Z,4.13
2018-03-19T10:53:06.796Z,3.60
2018-03-19T10:55:35.135Z,3.74
2018-03-19T10:58:03.397Z,3.70
2018-03-19T11:00:31.728Z,3.61
2018-03-19T11:03:05.780Z,3.07
2018-03-19T11:05:39.692Z,3.00
2018-03-19T11:08:08.946Z,3.12
2018-03-19T11:10:37.266Z,3.47
2018-03-19T11:13:05.869Z,3.69
2018-03-19T11:15:34.196Z,3.52
2018-03-19T11:18:02.499Z,3.73
2018-03-19T11:20:30.851Z,4.13
2018-03-19T11:22:59.103Z,4.03
2018-03-19T11:25:27.407Z,3.94
2018-03-19T11:27:56.651Z,4.05
2018-03-19T11:30:25.200Z,3.84
2018-03-19T11:32:53.506Z,3.88
2018-03-19T11:35:21.844Z,4.12
2018-03-19T11:37:50.142Z,3.61
2018-03-19T11:40:18.436Z,3.51
2018-03-19T11:42:46.800Z,3.80
2018-03-19T11:45:15.059Z,4.34
2018-03-19T11:47:43.356Z,4.71
2018-03-19T11:50:11.712Z,4.86
2018-03-19T11:52:40.778Z,4.76
2018-03-19T11:55:09.057Z,4.84
2018-03-19T11:57:38.182Z,4.55
2018-03-19T12:00:06.469Z,4.19
2018-03-19T12:02:35.080Z,4.24
2018-03-19T12:05:03.367Z,4.88
2018-03-19T12:07:31.671Z,4.81
2018-03-19T12:09:59.946Z,5.03
2018-03-19T12:12:28.238Z,5.35
2018-03-19T12:14:56.538Z,5.63
2018-03-19T12:17:24.844Z,5.62
2018-03-19T12:19:53.112Z,5.29
2018-03-19T12:22:21.403Z,5.33
2018-03-19T12:24:49.672Z,4.58
2018-03-19T12:27:17.955Z,4.82
2018-03-19T12:29:46.288Z,3.87
2018-03-19T12:32:14.667Z,3.47
2018-03-19T12:34:43.081Z,3.87
2018-03-19T12:37:11.403Z,4.14
2018-03-19T12:39:39.685Z,4.08
2018-03-19T12:42:07.928Z,3.53
2018-03-19T12:44:36.243Z,3.43
2018-03-19T12:47:05.604Z,3.75
2018-03-19T12:49:33.951Z,4.03
2018-03-19T12:52:02.873Z,4.39
2018-03-19T12:54:31.223Z,4.22
2018-03-19T12:57:00.188Z,3.74
2018-03-19T12:59:28.523Z,3.56
2018-03-19T13:01:56.791Z,3.48
2018-03-19T13:04:25.078Z,3.89
2018-03-19T13:06:53.342Z,4.40
2018-03-19T13:09:21.639Z,4.18
2018-03-19T13:11:50.439Z,4.00
2018-03-19T13:14:18.766Z,4.03
2018-03-19T13:16:47.027Z,4.33
2018-03-19T13:19:15.343Z,4.21
2018-03-19T13:21:43.619Z,3.98
2018-03-19T13:24:11.895Z,4.37
2018-03-19T13:26:40.164Z,4.54
2018-03-19T13:29:08.460Z,4.79
2018-03-19T13:31:36.745Z,4.73
2018-03-19T13:34:05.378Z,4.44
2018-03-19T13:36:33.630Z,3.91
2018-03-19T13:39:01.983Z,3.74
2018-03-19T13:41:31.080Z,4.17
2018-03-19T13:43:59.404Z,4.70
2018-03-19T13:46:28.628Z,4.45
2018-03-19T13:48:56.910Z,4.60
2018-03-19T13:51:25.209Z,4.39
2018-03-19T13:53:53.516Z,4.48
2018-03-19T13:56:21.825Z,4.54
2018-03-19T13:58:50.103Z,4.50
2018-03-19T14:01:18.415Z,4.34
2018-03-19T14:03:46.679Z,4.59
2018-03-19T14:06:14.980Z,4.44
2018-03-19T14:08:43.236Z,4.64
2018-03-19T14:11:11.550Z,4.61
2018-03-19T14:13:39.812Z,4.81
2018-03-19T14:16:08.566Z,4.93
2018-03-19T14:18:36.851Z,5.21
2018-03-19T14:21:05.393Z,4.88
2018-03-19T14:23:33.710Z,5.12
2018-03-19T14:26:02.000Z,4.52
2018-03-19T14:28:30.325Z,4.52
2018-03-19T14:30:58.608Z,4.46
2018-03-19T14:33:26.915Z,4.81
2018-03-19T14:35:55.241Z,5.12
2018-03-19T14:38:23.501Z,5.27
2018-03-19T14:40:51.780Z,5.32
2018-03-19T14:43:20.088Z,5.24
2018-03-19T14:45:48.398Z,5.28
2018-03-19T14:48:16.698Z,4.64
2018-03-19T14:50:45.070Z,4.64
2018-03-19T14:53:13.315Z,4.40
2018-03-19T14:55:41.911Z,4.62
2018-03-19T14:58:10.219Z,4.97
2018-03-19T15:00:38.497Z,5.18
2018-03-19T15:03:06.832Z,4.73
2018-03-19T15:05:35.202Z,4.34
2018-03-19T15:08:03.456Z,4.54
2018-03-19T15:10:31.735Z,4.78
2018-03-19T15:13:00.058Z,4.97
2018-03-19T15:15:28.341Z,5.07
2018-03-19T15:17:56.645Z,4.90
2018-03-19T15:20:25.593Z,4.61
2018-03-19T15:22:53.878Z,4.77
2018-03-19T15:25:22.552Z,4.89
2018-03-19T15:27:55.956Z,4.76
2018-03-19T15:30:24.200Z,4.64
2018-03-19T15:32:52.540Z,4.68
2018-03-19T15:35:20.829Z,4.39
2018-03-19T15:37:49.112Z,4.12
2018-03-19T15:40:18.373Z,4.30
2018-03-19T15:42:46.692Z,4.47
2018-03-19T15:45:14.985Z,4.78
2018-03-19T15:47:43.266Z,4.81
2018-03-19T15:50:11.553Z,4.91
2018-03-19T15:52:40.246Z,4.66
2018-03-19T15:55:08.591Z,4.66
2018-03-19T15:57:36.904Z,4.75
2018-03-19T16:00:05.343Z,4.79
2018-03-19T16:02:33.655Z,4.75
2018-03-19T16:05:01.977Z,4.54
2018-03-19T16:07:30.240Z,4.41
2018-03-19T16:09:58.560Z,4.60
2018-03-19T16:12:27.485Z,4.48
2018-03-19T16:14:55.808Z,4.30
2018-03-19T16:17:24.040Z,4.43
2018-03-19T16:19:52.342Z,4.18
2018-03-19T16:22:20.587Z,4.17
2018-03-19T16:24:48.881Z,4.15
2018-03-19T16:27:17.274Z,4.39
2018-03-19T16:29:45.483Z,4.52
2018-03-19T16:32:13.797Z,4.45
2018-03-19T16:34:42.143Z,4.50
2018-03-19T16:37:10.425Z,4.65
2018-03-19T16:39:39.205Z,5.03
2018-03-19T16:42:07.585Z,5.15
2018-03-19T16:44:35.854Z,5.26
2018-03-19T16:47:04.486Z,5.02
2018-03-19T16:49:32.788Z,5.15
2018-03-19T16:52:01.072Z,4.97
2018-03-19T16:54:29.330Z,4.69
2018-03-19T16:56:57.636Z,4.38
2018-03-19T16:59:25.927Z,4.10
2018-03-19T17:01:54.239Z,4.10
2018-03-19T17:04:22.506Z,4.22
2018-03-19T17:06:50.814Z,4.24
2018-03-19T17:09:19.073Z,4.38
2018-03-19T17:11:47.388Z,4.50
2018-03-19T17:14:15.737Z,4.58
2018-03-19T17:16:44.105Z,4.56
2018-03-19T17:19:12.369Z,4.61
2018-03-19T17:21:40.692Z,4.65
2018-03-19T17:24:09.312Z,4.72
2018-03-19T17:26:37.603Z,4.78
2018-03-19T17:29:05.925Z,4.68
2018-03-19T17:31:34.231Z,4.81
2018-03-19T17:34:02.504Z,4.70
2018-03-19T17:36:30.810Z,4.72
2018-03-19T17:38:59.111Z,4.45
2018-03-19T17:41:27.432Z,4.36
2018-03-19T17:43:55.757Z,4.41
2018-03-19T17:46:24.080Z,4.59
2018-03-19T17:48:52.435Z,4.72
2018-03-19T17:51:20.683Z,4.75
2018-03-19T17:53:49.014Z,4.49
2018-03-19T17:56:17.323Z,3.99
2018-03-19T17:58:45.614Z,3.77
2018-03-19T18:01:13.881Z,3.85
2018-03-19T18:03:42.180Z,4.02
2018-03-19T18:06:10.500Z,4.15
2018-03-19T18:08:38.771Z,4.32
2018-03-19T18:11:07.042Z,4.39
2018-03-19T18:13:35.348Z,4.21
2018-03-19T18:16:03.612Z,4.14
2018-03-19T18:18:32.143Z,4.29
2018-03-19T18:21:00.961Z,4.43
2018-03-19T18:23:29.249Z,4.27
2018-03-19T18:25:57.592Z,4.28
2018-03-19T18:28:25.903Z,4.20
2018-03-19T18:30:54.194Z,4.23
2018-03-19T18:33:23.409Z,4.27
2018-03-19T18:35:51.658Z,4.48
2018-03-19T18:38:19.960Z,4.59
2018-03-19T18:40:48.316Z,4.71
2018-03-19T18:43:16.763Z,4.76
2018-03-19T18:45:45.082Z,4.80
2018-03-19T18:48:13.370Z,4.70
2018-03-19T18:50:41.674Z,4.68
2018-03-19T18:53:09.938Z,4.67
2018-03-19T18:55:38.254Z,4.69
2018-03-19T18:58:06.516Z,4.71
2018-03-19T19:00:34.843Z,4.85
2018-03-19T19:03:03.099Z,4.71
2018-03-19T19:05:31.400Z,4.73
2018-03-19T19:07:59.730Z,4.67
2018-03-19T19:10:28.269Z,4.76
2018-03-19T19:12:56.547Z,4.75
2018-03-19T19:15:24.851Z,4.76
2018-03-19T19:17:53.170Z,4.69
2018-03-19T19:20:21.545Z,4.78
2018-03-19T19:22:49.922Z,4.82
2018-03-19T19:25:18.245Z,4.45
2018-03-19T19:27:46.534Z,4.30
2018-03-19T19:30:14.859Z,4.01
2018-03-19T19:32:43.140Z,3.57
2018-03-19T19:35:11.432Z,3.53
2018-03-19T19:37:39.704Z,3.67
2018-03-19T19:40:07.993Z,3.65
2018-03-19T19:42:36.264Z,3.47
2018-03-19T19:45:05.157Z,3.70
2018-03-19T19:47:33.460Z,3.87
2018-03-19T19:50:01.732Z,3.89
2018-03-19T19:52:30.027Z,4.09
2018-03-19T19:54:58.319Z,3.78
2018-03-19T19:57:26.603Z,3.82
2018-03-19T19:59:54.877Z,3.71
2018-03-19T20:02:23.162Z,3.75
2018-03-19T20:04:51.436Z,3.74
2018-03-19T20:07:19.744Z,3.81
2018-03-19T20:09:48.016Z,3.77
2018-03-19T20:12:16.300Z,3.77
2018-03-19T20:14:44.600Z,3.80
2018-03-19T20:17:12.880Z,3.54
2018-03-19T20:19:41.160Z,3.43
2018-03-19T20:22:09.450Z,3.43
2018-03-19T20:24:37.723Z,3.40
2018-03-19T20:27:06.009Z,3.52
2018-03-19T20:29:34.369Z,3.44
2018-03-19T20:32:02.667Z,3.49
2018-03-19T20:34:31.013Z,3.26
2018-03-19T20:36:59.288Z,2.97
2018-03-19T20:39:27.609Z,2.91
2018-03-19T20:41:55.877Z,2.70
2018-03-19T20:44:25.042Z,2.57
2018-03-19T20:46:53.317Z,2.70
2018-03-19T20:49:21.608Z,2.93
2018-03-19T20:51:49.875Z,2.65
2018-03-19T20:54:18.199Z,2.78
2018-03-19T20:56:46.518Z,3.04
2018-03-19T20:59:14.806Z,3.15
2018-03-19T21:01:43.058Z,3.16
2018-03-19T21:04:11.349Z,2.96
2018-03-19T21:06:39.616Z,2.61
2018-03-19T21:09:07.953Z,2.53
2018-03-19T21:11:36.208Z,2.78
2018-03-19T21:14:05.653Z,2.87
2018-03-19T21:16:33.935Z,2.88
2018-03-19T21:19:02.229Z,2.68
2018-03-19T21:21:30.556Z,2.72
2018-03-19T21:23:58.831Z,2.79
2018-03-19T21:26:27.159Z,3.00
2018-03-19T21:28:55.453Z,3.00
2018-03-19T21:31:23.784Z,3.02
2018-03-19T21:33:52.113Z,3.04
2018-03-19T21:36:20.353Z,3.09
2018-03-19T21:38:48.645Z,3.12
2018-03-19T21:41:16.981Z,2.80
2018-03-19T21:43:45.199Z,2.94
2018-03-19T21:46:13.516Z,2.60
2018-03-19T21:48:41.792Z,2.29
2018-03-19T21:51:10.131Z,2.50
2018-03-19T21:53:38.405Z,2.69
2018-03-19T21:56:06.721Z,2.82
2018-03-19T21:58:34.993Z,2.55
2018-03-19T22:01:04.215Z,2.43
2018-03-19T22:03:32.476Z,2.33
2018-03-19T22:06:00.783Z,2.19
2018-03-19T22:08:29.058Z,2.05
2018-03-19T22:10:57.377Z,2.28
2018-03-19T22:13:25.712Z,2.12
2018-03-19T22:15:54.022Z,1.97
2018-03-19T22:18:22.299Z,1.85
2018-03-19T22:20:51.013Z,1.78
2018-03-19T22:23:19.278Z,1.66
2018-03-19T22:25:47.591Z,1.68
2018-03-19T22:28:15.903Z,1.58
2018-03-19T22:30:44.253Z,1.68
2018-03-19T22:33:12.520Z,1.95
2018-03-19T22:35:40.832Z,2.01
2018-03-19T22:38:09.141Z,1.78
2018-03-19T22:40:37.429Z,1.71
2018-03-19T22:43:05.746Z,1.77
2018-03-19T22:45:34.033Z,1.73
2018-03-19T22:48:02.328Z,1.76
2018-03-19T22:50:30.588Z,1.85
2018-03-19T22:52:58.889Z,2.01
2018-03-19T22:55:27.163Z,2.08
2018-03-19T22:57:55.579Z,2.16
2018-03-19T23:00:23.891Z,2.22
2018-03-19T23:02:52.220Z,2.21
2018-03-19T23:05:21.997Z,2.23
2018-03-19T23:07:50.286Z,2.28
2018-03-19T23:10:18.574Z,2.33
2018-03-19T23:12:47.065Z,2.16
2018-03-19T23:15:15.313Z,1.98
2018-03-19T23:17:43.616Z,2.02
2018-03-19T23:20:11.896Z,1.85
2018-03-19T23:22:40.209Z,1.84
2018-03-19T23:25:08.489Z,2.05
2018-03-19T23:27:37.797Z,2.17
2018-03-19T23:30:06.097Z,2.16
2018-03-19T23:32:34.383Z,2.23
2018-03-19T23:35:02.679Z,2.16
2018-03-19T23:37:31.138Z,2.00
2018-03-19T23:39:59.552Z,1.93
2018-03-19T23:42:28.069Z,1.87
2018-03-19T23:44:56.390Z,1.84
2018-03-19T23:47:24.677Z,2.04
2018-03-19T23:49:52.984Z,2.06
2018-03-19T23:52:21.247Z,2.21
2018-03-19T23:54:49.791Z,2.06
2018-03-19T23:57:18.065Z,1.86
2018-03-19T23:59:46.384Z,1.91
